Time;durP1;ratioP1;P1;durP2;ratioP2;P2;SDS_P1;SDS_P2;PMS_P1;PMS_P2;Temp;Humidity;BMP_temperature;BMP_pressure;BME280_temperature;BME280_humidity;BME280_pressure;Samples;Min_cycle;Max_cycle;Signal;HPM_P1;HPM_P2
2023/01/31 00:01:26;;;;;;;31.90;4.05;;;5.50;99.90;;;;;;5074307;28;20056;-74
2023/01/31 00:03:53;;;;;;;34.38;5.10;;;5.40;99.90;;;;;;5073039;28;20479;-74
2023/01/31 00:06:28;;;;;;;33.50;4.57;;;5.40;99.90;;;;;;5073292;28;20045;-74
2023/01/31 00:08:54;;;;;;;32.25;4.53;;;5.30;99.90;;;;;;5073113;28;20483;-74
2023/01/31 00:11:22;;;;;;;30.90;4.57;;;5.20;99.90;;;;;;5072647;28;20090;-74
2023/01/31 00:13:48;;;;;;;19.27;3.70;;;5.20;99.90;;;;;;5073121;28;20080;-74
2023/01/31 00:16:15;;;;;;;35.97;5.68;;;5.10;99.90;;;;;;5072851;28;20059;-74
2023/01/31 00:18:41;;;;;;;33.85;4.63;;;5.10;99.90;;;;;;5072704;28;20434;-74
2023/01/31 00:21:13;;;;;;;41.00;5.75;;;4.90;99.90;;;;;;5072816;28;20048;-74
2023/01/31 00:23:40;;;;;;;35.50;6.20;;;4.90;99.90;;;;;;5072690;28;20072;-74
2023/01/31 00:26:11;;;;;;;31.50;5.35;;;4.80;99.90;;;;;;5072647;28;20052;-74
2023/01/31 00:28:41;;;;;;;39.08;5.05;;;4.70;99.90;;;;;;5072316;28;20105;-74
2023/01/31 00:31:07;;;;;;;25.27;4.03;;;4.70;99.90;;;;;;5072566;28;20431;-74
2023/01/31 00:33:34;;;;;;;25.27;4.63;;;4.60;99.90;;;;;;5072691;28;20052;-74
2023/01/31 00:36:11;;;;;;;24.35;3.92;;;4.60;99.90;;;;;;5072698;28;20091;-74
2023/01/31 00:38:37;;;;;;;32.17;4.35;;;4.50;99.90;;;;;;5072646;28;20509;-74
2023/01/31 00:41:04;;;;;;;20.95;2.83;;;4.50;99.90;;;;;;5072543;28;20423;-74
2023/01/31 00:43:32;;;;;;;27.38;3.53;;;4.40;99.90;;;;;;5072742;28;20404;-74
2023/01/31 00:46:22;;;;;;;20.90;3.53;;;4.40;99.90;;;;;;5072457;28;20048;-74
2023/01/31 00:48:48;;;;;;;23.45;3.05;;;4.30;99.90;;;;;;5058888;28;20076;-74
2023/01/31 00:51:14;;;;;;;24.38;3.78;;;4.40;99.90;;;;;;5072214;28;20048;-74
2023/01/31 00:53:40;;;;;;;19.40;2.47;;;4.30;99.90;;;;;;5072402;28;20131;-74
2023/01/31 00:56:10;;;;;;;23.13;3.65;;;4.30;99.90;;;;;;5072379;28;20491;-74
2023/01/31 00:58:38;;;;;;;26.25;3.22;;;4.30;99.90;;;;;;5072221;28;20052;-74
2023/01/31 01:01:09;;;;;;;27.30;4.00;;;4.30;99.90;;;;;;5072171;28;20058;-74
2023/01/31 01:03:35;;;;;;;28.73;3.75;;;4.30;99.90;;;;;;5072081;28;20392;-74
2023/01/31 01:06:01;;;;;;;27.20;4.05;;;4.30;99.90;;;;;;5072513;28;20098;-74
2023/01/31 01:08:28;;;;;;;23.75;4.00;;;4.20;99.90;;;;;;5072541;28;20045;-74
2023/01/31 01:10:53;;;;;;;18.75;3.67;;;4.20;99.90;;;;;;5072130;28;20124;-74
2023/01/31 01:13:22;;;;;;;35.20;4.07;;;4.20;99.90;;;;;;5072091;28;20084;-74
2023/01/31 01:15:47;;;;;;;36.88;4.53;;;4.10;99.90;;;;;;5072088;28;20044;-74
2023/01/31 01:18:13;;;;;;;35.58;6.15;;;4.20;99.90;;;;;;5073288;28;20118;-74
2023/01/31 01:20:39;;;;;;;32.10;5.50;;;4.20;99.90;;;;;;5072001;28;20056;-74
2023/01/31 01:23:04;;;;;;;36.40;5.28;;;4.10;99.90;;;;;;5072089;28;20525;-74
2023/01/31 01:25:30;;;;;;;19.45;3.25;;;4.20;99.90;;;;;;5072126;28;20047;-74
2023/01/31 01:27:58;;;;;;;35.42;4.30;;;4.20;99.90;;;;;;5071669;28;20053;-74
2023/01/31 01:30:24;;;;;;;40.88;5.75;;;4.10;99.90;;;;;;5071896;28;20052;-74
2023/01/31 01:32:49;;;;;;;25.52;3.53;;;4.10;99.90;;;;;;5072243;28;20045;-74
2023/01/31 01:35:15;;;;;;;26.23;4.15;;;4.20;99.90;;;;;;5071989;28;20044;-74
2023/01/31 01:37:41;;;;;;;27.42;3.97;;;4.20;99.90;;;;;;5072039;28;20048;-74
2023/01/31 01:40:07;;;;;;;31.63;5.30;;;4.30;99.90;;;;;;5071923;28;20046;-74
2023/01/31 01:42:34;;;;;;;18.30;3.85;;;4.30;99.90;;;;;;5073245;28;20058;-74
2023/01/31 01:45:15;;;;;;;24.20;4.72;;;4.30;99.90;;;;;;5071750;28;20365;-74
2023/01/31 01:47:58;;;;;;;26.27;3.42;;;4.30;99.90;;;;;;5072086;28;20048;-74
2023/01/31 01:50:33;;;;;;;36.70;5.85;;;4.30;99.90;;;;;;5072054;28;20095;-74
2023/01/31 01:53:06;;;;;;;30.80;3.40;;;4.30;99.90;;;;;;5071835;28;20048;-74
2023/01/31 01:55:40;;;;;;;29.67;3.95;;;4.30;99.90;;;;;;5072090;28;20063;-74
2023/01/31 01:58:15;;;;;;;21.95;3.92;;;4.40;99.90;;;;;;5071974;28;20053;-74
2023/01/31 02:00:41;;;;;;;32.20;4.15;;;4.40;99.90;;;;;;5073040;28;20505;-74
2023/01/31 02:03:07;;;;;;;15.68;2.50;;;4.30;99.90;;;;;;5075643;28;20048;-74
2023/01/31 02:05:43;;;;;;;21.08;2.42;;;4.30;99.90;;;;;;5075425;28;20076;-74
2023/01/31 02:08:09;;;;;;;27.70;4.35;;;4.30;99.90;;;;;;5075082;28;20059;-74
2023/01/31 02:10:49;;;;;;;27.35;3.42;;;4.40;99.90;;;;;;5074919;28;20051;-74
2023/01/31 02:13:16;;;;;;;22.30;2.97;;;4.40;99.90;;;;;;5076496;28;20047;-74
2023/01/31 02:15:42;;;;;;;24.83;2.67;;;4.40;99.90;;;;;;5075197;28;20396;-74
2023/01/31 02:18:08;;;;;;;19.30;3.47;;;4.40;99.90;;;;;;5075022;28;20052;-74
2023/01/31 02:21:04;;;;;;;25.00;4.18;;;4.40;99.90;;;;;;5075243;28;20083;-74
2023/01/31 02:23:55;;;;;;;27.85;3.75;;;4.40;99.90;;;;;;5074829;28;20450;-74
2023/01/31 02:26:45;;;;;;;31.98;7.57;;;4.30;99.90;;;;;;5075173;28;20106;-74
2023/01/31 02:29:24;;;;;;;21.80;2.45;;;4.50;99.90;;;;;;5074759;28;20052;-74
2023/01/31 02:32:27;;;;;;;26.13;3.60;;;4.40;99.90;;;;;;5074960;28;20129;-74
2023/01/31 02:35:31;;;;;;;18.52;3.20;;;4.40;99.90;;;;;;5074990;28;20510;-74
2023/01/31 02:38:26;;;;;;;18.50;2.58;;;4.40;99.90;;;;;;5075120;28;20048;-74
2023/01/31 02:41:07;;;;;;;28.58;3.47;;;4.40;99.90;;;;;;5061923;28;20052;-74
2023/01/31 02:46:52;;;;;;;23.55;3.03;;;4.30;99.90;;;;;;5075853;28;20057;-74
2023/01/31 02:49:34;;;;;;;28.00;3.42;;;4.20;99.90;;;;;;5074733;28;20041;-74
2023/01/31 02:52:19;;;;;;;26.50;3.53;;;4.30;99.90;;;;;;5074480;28;20076;-74
2023/01/31 02:57:48;;;;;;;27.30;3.08;;;4.30;99.90;;;;;;5074259;28;20484;-74
2023/01/31 03:00:14;;;;;;;20.13;4.55;;;4.20;99.90;;;;;;5074358;28;20483;-74
2023/01/31 03:02:40;;;;;;;25.50;4.47;;;4.30;99.90;;;;;;5074210;28;20080;-74
2023/01/31 03:05:14;;;;;;;26.00;3.97;;;4.20;99.90;;;;;;5074286;28;20056;-74
2023/01/31 03:08:04;;;;;;;24.33;3.65;;;4.30;99.90;;;;;;5074462;28;20057;-74
2023/01/31 03:10:44;;;;;;;23.35;3.65;;;4.30;99.90;;;;;;5074287;28;20059;-74
2023/01/31 03:13:49;;;;;;;20.67;2.92;;;4.30;99.90;;;;;;5073384;28;20475;-74
2023/01/31 03:19:12;;;;;;;18.75;3.25;;;4.20;99.90;;;;;;5073907;28;20052;-74
2023/01/31 03:21:53;;;;;;;34.30;5.47;;;4.40;99.90;;;;;;5073886;28;20052;-74
2023/01/31 03:24:25;;;;;;;18.55;2.53;;;4.40;99.90;;;;;;5074131;28;20052;-74
2023/01/31 03:26:52;;;;;;;19.67;3.70;;;4.30;99.90;;;;;;5073968;28;20055;-74
2023/01/31 03:29:18;;;;;;;17.88;3.35;;;4.40;99.90;;;;;;5073502;28;20534;-74
2023/01/31 03:32:10;;;;;;;24.10;3.80;;;4.40;99.90;;;;;;5074860;28;20045;-74
2023/01/31 03:34:36;;;;;;;28.05;3.85;;;4.40;99.90;;;;;;5073921;28;20118;-74
2023/01/31 03:37:10;;;;;;;23.80;3.67;;;4.40;99.90;;;;;;5074886;28;20479;-74
2023/01/31 03:39:59;;;;;;;24.15;3.85;;;4.60;99.90;;;;;;5074882;28;20128;-74
2023/01/31 03:42:43;;;;;;;25.42;4.43;;;4.50;99.90;;;;;;5073565;28;20098;-74
2023/01/31 03:45:18;;;;;;;33.40;4.13;;;4.60;99.90;;;;;;5073666;28;20044;-74
2023/01/31 03:47:48;;;;;;;24.08;3.80;;;4.50;99.90;;;;;;5073601;28;20043;-74
2023/01/31 03:50:37;;;;;;;26.80;4.20;;;4.60;99.90;;;;;;5073086;28;20123;-74
2023/01/31 03:53:33;;;;;;;23.13;3.75;;;4.50;99.90;;;;;;5073351;28;20080;-74
2023/01/31 03:56:19;;;;;;;27.05;4.45;;;4.60;99.90;;;;;;5074354;28;20381;-74
2023/01/31 03:58:49;;;;;;;37.95;5.82;;;4.60;99.90;;;;;;5074503;28;20032;-74
2023/01/31 04:01:20;;;;;;;25.50;4.47;;;4.70;99.90;;;;;;5073299;28;20070;-74
2023/01/31 04:04:00;;;;;;;25.40;5.30;;;4.60;99.90;;;;;;5072837;28;20048;-74
2023/01/31 04:06:26;;;;;;;31.35;7.05;;;4.70;99.90;;;;;;5073196;28;20044;-74
2023/01/31 04:08:52;;;;;;;25.83;5.15;;;4.70;99.90;;;;;;5072840;28;20040;-74
2023/01/31 04:11:20;;;;;;;26.05;3.97;;;4.60;99.90;;;;;;5072835;28;20058;-74
2023/01/31 04:13:46;;;;;;;21.85;3.88;;;4.60;99.90;;;;;;5072915;28;20127;-74
2023/01/31 04:16:12;;;;;;;27.95;5.18;;;4.70;99.90;;;;;;5074124;28;20123;-74
2023/01/31 04:18:37;;;;;;;28.98;6.07;;;4.70;99.90;;;;;;5072976;28;20052;-74
2023/01/31 04:21:04;;;;;;;29.08;4.80;;;4.70;99.90;;;;;;5074228;28;20044;-74
2023/01/31 04:23:29;;;;;;;30.88;4.80;;;4.80;99.90;;;;;;5073541;28;20040;-74
2023/01/31 04:25:55;;;;;;;36.47;4.97;;;4.80;99.90;;;;;;5072210;28;20067;-74
2023/01/31 04:28:23;;;;;;;35.03;5.43;;;4.80;99.90;;;;;;5073659;28;20444;-74
2023/01/31 04:30:53;;;;;;;31.85;5.35;;;4.80;99.90;;;;;;5072380;28;20601;-74
2023/01/31 04:33:19;;;;;;;28.77;5.53;;;4.90;99.90;;;;;;5073935;28;20047;-74
2023/01/31 04:35:45;;;;;;;27.02;4.75;;;4.90;99.90;;;;;;5073689;28;20388;-74
2023/01/31 04:38:10;;;;;;;26.60;4.70;;;4.90;99.90;;;;;;5072762;28;20479;-74
2023/01/31 04:40:36;;;;;;;36.45;7.90;;;5.00;99.90;;;;;;5072708;28;20067;-74
2023/01/31 04:43:02;;;;;;;34.83;6.13;;;5.00;99.90;;;;;;5072786;28;20395;-74
2023/01/31 04:45:28;;;;;;;32.78;5.40;;;5.00;99.90;;;;;;5072459;28;20052;-74
2023/01/31 04:47:53;;;;;;;30.67;6.22;;;5.00;99.90;;;;;;5072302;28;20052;-75
2023/01/31 04:50:19;;;;;;;23.75;5.00;;;5.00;99.90;;;;;;5072500;28;20135;-74
2023/01/31 04:52:47;;;;;;;35.40;6.25;;;5.00;99.90;;;;;;5072344;28;20058;-74
2023/01/31 04:55:13;;;;;;;31.00;4.82;;;5.10;99.90;;;;;;5072429;28;20547;-74
2023/01/31 04:57:41;;;;;;;36.33;7.00;;;5.00;99.90;;;;;;5073660;28;20531;-75
2023/01/31 05:00:13;;;;;;;36.47;6.68;;;5.10;99.90;;;;;;5072069;28;20037;-74
2023/01/31 05:02:42;;;;;;;33.57;6.40;;;5.10;99.90;;;;;;5073651;28;20083;-74
2023/01/31 05:05:08;;;;;;;34.78;6.70;;;5.10;99.90;;;;;;5073606;28;20046;-74
2023/01/31 05:07:33;;;;;;;38.53;7.55;;;5.10;99.90;;;;;;5072193;28;20479;-74
2023/01/31 05:09:59;;;;;;;29.25;5.28;;;5.20;99.90;;;;;;5072224;28;20049;-74
2023/01/31 05:12:25;;;;;;;41.78;8.48;;;5.20;99.90;;;;;;5072222;28;20052;-74
2023/01/31 05:14:54;;;;;;;27.27;5.32;;;5.30;99.90;;;;;;5072463;28;20120;-74
2023/01/31 05:17:27;;;;;;;26.05;5.85;;;5.30;99.90;;;;;;5072366;28;20052;-74
2023/01/31 05:19:53;;;;;;;31.08;7.68;;;5.30;99.90;;;;;;5072099;28;20044;-74
2023/01/31 05:22:21;;;;;;;29.45;6.55;;;5.30;99.90;;;;;;5072085;28;20048;-74
2023/01/31 05:24:47;;;;;;;34.35;5.57;;;5.30;99.90;;;;;;5072425;28;20063;-74
2023/01/31 05:27:13;;;;;;;31.65;6.22;;;5.30;99.90;;;;;;5072312;28;20116;-74
2023/01/31 05:29:38;;;;;;;31.73;7.18;;;5.30;99.90;;;;;;5071803;28;20135;-74
2023/01/31 05:32:05;;;;;;;29.13;7.13;;;5.30;99.90;;;;;;5073241;28;20107;-74
2023/01/31 05:34:32;;;;;;;31.17;5.65;;;5.30;99.90;;;;;;5071959;28;20052;-74
2023/01/31 05:36:58;;;;;;;35.67;6.63;;;5.30;99.90;;;;;;5075141;28;20050;-74
2023/01/31 05:39:24;;;;;;;31.08;5.82;;;5.40;99.90;;;;;;5076114;28;20040;-75
2023/01/31 05:41:51;;;;;;;37.92;5.82;;;5.40;99.90;;;;;;5077057;28;20457;-74
2023/01/31 05:44:17;;;;;;;32.20;6.60;;;5.30;99.90;;;;;;5075836;28;20391;-74
2023/01/31 05:46:43;;;;;;;39.38;5.60;;;5.40;99.90;;;;;;5075836;28;20062;-74
2023/01/31 05:49:09;;;;;;;30.90;5.63;;;5.30;99.90;;;;;;5075874;28;20048;-74
2023/01/31 05:51:35;;;;;;;40.22;6.60;;;5.40;99.90;;;;;;5075559;28;20052;-74
2023/01/31 05:54:01;;;;;;;22.95;4.72;;;5.40;99.90;;;;;;5075380;28;20479;-74
2023/01/31 05:56:27;;;;;;;34.45;5.57;;;5.40;99.90;;;;;;5075472;28;20052;-74
2023/01/31 05:58:52;;;;;;;29.92;5.72;;;5.50;99.90;;;;;;5076750;28;20044;-74
2023/01/31 06:01:26;;;;;;;24.73;5.43;;;5.40;99.90;;;;;;5075358;28;20159;-75
2023/01/31 06:03:52;;;;;;;35.03;5.82;;;5.40;99.90;;;;;;5075361;28;20040;-74
2023/01/31 06:06:21;;;;;;;36.35;6.63;;;5.50;99.90;;;;;;5075587;28;20091;-74
2023/01/31 06:08:47;;;;;;;28.10;5.00;;;5.50;99.90;;;;;;5076538;28;20500;-74
2023/01/31 06:11:13;;;;;;;28.20;5.25;;;5.50;99.90;;;;;;5075025;28;20048;-74
2023/01/31 06:13:42;;;;;;;29.60;4.55;;;5.50;99.90;;;;;;5075377;28;20067;-75
2023/01/31 06:16:11;;;;;;;43.67;6.30;;;5.50;99.90;;;;;;5075178;28;20116;-74
2023/01/31 06:18:36;;;;;;;42.53;7.82;;;5.60;99.90;;;;;;5075304;28;20049;-74
2023/01/31 06:21:02;;;;;;;31.40;5.95;;;5.60;99.90;;;;;;5075374;28;20051;-75
2023/01/31 06:23:28;;;;;;;31.20;6.50;;;5.50;99.90;;;;;;5076272;28;20534;-74
2023/01/31 06:25:54;;;;;;;27.98;5.78;;;5.50;99.90;;;;;;5074870;28;20171;-74
2023/01/31 06:28:20;;;;;;;34.60;5.43;;;5.50;99.90;;;;;;5074575;28;20060;-74
2023/01/31 06:30:46;;;;;;;35.72;5.78;;;5.60;99.90;;;;;;5074977;28;20052;-74
2023/01/31 06:33:13;;;;;;;35.17;6.97;;;5.60;99.90;;;;;;5074549;28;20082;-74
2023/01/31 06:35:38;;;;;;;31.58;6.85;;;5.60;99.90;;;;;;5074891;28;20221;-74
2023/01/31 06:38:05;;;;;;;26.40;6.38;;;5.60;99.90;;;;;;5074735;28;20055;-74
2023/01/31 06:40:35;;;;;;;25.67;5.50;;;5.70;99.90;;;;;;5074868;28;20044;-74
2023/01/31 06:43:01;;;;;;;33.42;5.50;;;5.60;99.90;;;;;;5074783;28;20044;-74
2023/01/31 06:45:26;;;;;;;28.92;5.25;;;5.70;99.90;;;;;;5074594;28;20462;-74
2023/01/31 06:47:52;;;;;;;30.33;4.90;;;5.60;99.90;;;;;;5073331;28;20097;-74
2023/01/31 06:50:20;;;;;;;37.20;4.95;;;5.60;99.90;;;;;;5075857;28;20037;-74
2023/01/31 06:52:46;;;;;;;27.52;4.88;;;5.60;99.90;;;;;;5075806;28;20106;-74
2023/01/31 06:55:12;;;;;;;27.55;4.80;;;5.70;99.90;;;;;;5074581;28;20048;-74
2023/01/31 06:57:46;;;;;;;32.17;4.88;;;5.60;99.90;;;;;;5074585;28;20131;-73
2023/01/31 07:00:12;;;;;;;26.50;5.22;;;5.70;99.90;;;;;;5074617;28;20052;-74
2023/01/31 07:02:40;;;;;;;19.92;4.05;;;5.50;99.90;;;;;;5074597;28;20044;-74
2023/01/31 07:05:06;;;;;;;28.20;4.03;;;5.60;99.90;;;;;;5074018;28;20044;-74
2023/01/31 07:07:32;;;;;;;33.65;4.50;;;5.60;99.90;;;;;;5074341;28;20049;-74
2023/01/31 07:09:57;;;;;;;18.92;3.83;;;5.60;99.90;;;;;;5074016;28;20491;-74
2023/01/31 07:12:23;;;;;;;21.40;4.38;;;5.60;99.90;;;;;;5074031;28;20041;-74
2023/01/31 07:14:49;;;;;;;52.60;6.72;;;5.60;99.90;;;;;;5074020;28;20040;-74
2023/01/31 07:17:14;;;;;;;24.50;5.22;;;5.70;99.90;;;;;;5074287;28;20102;-74
2023/01/31 07:19:43;;;;;;;19.15;4.05;;;5.70;99.90;;;;;;5073972;28;20040;-74
2023/01/31 07:22:08;;;;;;;29.58;4.35;;;5.70;99.90;;;;;;5073831;28;20055;-75
2023/01/31 07:24:34;;;;;;;26.77;4.18;;;5.60;99.90;;;;;;5074064;28;20045;-74
2023/01/31 07:27:00;;;;;;;33.30;4.72;;;5.70;99.90;;;;;;5073996;28;20048;-74
2023/01/31 07:29:25;;;;;;;23.83;4.40;;;5.70;99.90;;;;;;5073527;28;20553;-74
2023/01/31 07:31:53;;;;;;;26.05;4.18;;;5.70;99.90;;;;;;5073567;28;20059;-75
2023/01/31 07:34:20;;;;;;;16.48;2.95;;;5.70;99.90;;;;;;5073786;28;20037;-74
2023/01/31 07:36:46;;;;;;;24.77;3.55;;;5.80;99.90;;;;;;5073300;28;20078;-74
2023/01/31 07:39:12;;;;;;;23.40;5.55;;;5.80;99.90;;;;;;5074271;28;20040;-74
2023/01/31 07:41:37;;;;;;;21.23;3.95;;;5.70;99.90;;;;;;5072852;28;20045;-74
2023/01/31 07:44:04;;;;;;;30.42;5.43;;;5.70;99.90;;;;;;5073162;28;20132;-74
2023/01/31 07:46:29;;;;;;;25.48;4.70;;;5.80;99.90;;;;;;5073234;28;20080;-74
2023/01/31 07:48:55;;;;;;;22.35;3.72;;;5.70;99.90;;;;;;5073301;28;20137;-74
2023/01/31 07:51:26;;;;;;;27.85;4.63;;;5.70;99.90;;;;;;5072984;28;20152;-74
2023/01/31 07:53:52;;;;;;;27.65;3.70;;;5.70;99.90;;;;;;5073334;28;20044;-75
2023/01/31 07:56:19;;;;;;;37.80;5.03;;;5.80;99.90;;;;;;5073001;28;20048;-75
2023/01/31 07:58:46;;;;;;;25.00;4.60;;;5.80;99.90;;;;;;5072969;28;20503;-74
2023/01/31 08:04:03;;;;;;;29.52;3.85;;;5.90;99.90;;;;;;5072960;28;20377;-75
2023/01/31 08:06:29;;;;;;;20.70;3.92;;;5.80;99.90;;;;;;5073180;28;20048;-74
2023/01/31 08:08:56;;;;;;;27.75;4.15;;;5.90;99.90;;;;;;5073000;28;20550;-75
2023/01/31 08:11:21;;;;;;;26.05;3.92;;;5.90;99.90;;;;;;5072609;28;20080;-75
2023/01/31 08:13:50;;;;;;;19.00;4.68;;;6.00;99.90;;;;;;5072996;28;20053;-75
2023/01/31 08:16:15;;;;;;;28.38;4.45;;;5.90;99.90;;;;;;5072682;28;20134;-75
2023/01/31 08:18:41;;;;;;;31.05;4.43;;;6.00;99.90;;;;;;5072598;28;20131;-75
2023/01/31 08:21:07;;;;;;;26.20;4.38;;;6.00;99.90;;;;;;5065978;28;20048;-74
2023/01/31 08:23:34;;;;;;;28.58;4.30;;;6.00;99.90;;;;;;5058268;28;20044;-74
2023/01/31 08:26:23;;;;;;;23.85;5.10;;;6.00;99.90;;;;;;5052586;28;20127;-74
2023/01/31 08:28:50;;;;;;;30.65;4.53;;;6.00;99.90;;;;;;5052032;28;20095;-74
2023/01/31 08:31:22;;;;;;;27.70;4.13;;;5.90;99.90;;;;;;5052146;28;20048;-73
2023/01/31 08:33:50;;;;;;;28.05;4.75;;;6.00;99.90;;;;;;5052359;28;20076;-74
2023/01/31 08:36:21;;;;;;;23.35;5.32;;;6.00;99.90;;;;;;5052115;28;20063;-74
2023/01/31 08:38:48;;;;;;;37.10;6.07;;;6.00;99.90;;;;;;5052402;28;20094;-74
2023/01/31 08:41:16;;;;;;;27.50;6.47;;;6.10;99.90;;;;;;5052624;28;20033;-74
2023/01/31 08:43:43;;;;;;;31.83;5.95;;;6.10;99.90;;;;;;5052084;28;20052;-74
2023/01/31 08:46:09;;;;;;;33.25;5.15;;;6.00;99.90;;;;;;5052102;28;20045;-74
2023/01/31 08:48:38;;;;;;;41.00;6.85;;;6.20;99.90;;;;;;5052237;28;20057;-74
2023/01/31 08:51:06;;;;;;;22.95;3.88;;;6.10;99.90;;;;;;5051902;28;20041;-74
2023/01/31 08:53:32;;;;;;;38.90;5.28;;;6.10;99.90;;;;;;5052054;28;20135;-75
2023/01/31 08:55:59;;;;;;;31.25;4.18;;;6.20;99.90;;;;;;5052216;28;20045;-76
2023/01/31 08:58:25;;;;;;;35.22;4.28;;;6.20;99.90;;;;;;5051857;28;20450;-76
2023/01/31 09:00:53;;;;;;;24.63;4.13;;;6.20;99.90;;;;;;5052154;28;20484;-75
2023/01/31 09:03:18;;;;;;;39.17;5.20;;;6.20;99.90;;;;;;5052074;28;20045;-76
2023/01/31 09:05:44;;;;;;;27.95;4.32;;;6.20;99.90;;;;;;5085544;28;20369;-75
2023/01/31 09:08:11;;;;;;;27.88;4.28;;;6.20;99.90;;;;;;5085558;28;20049;-74
2023/01/31 09:10:37;;;;;;;30.38;4.47;;;6.20;99.90;;;;;;5052972;28;20044;-74
2023/01/31 09:13:03;;;;;;;24.33;4.35;;;6.20;99.90;;;;;;5056148;28;20049;-74
2023/01/31 09:15:31;;;;;;;28.85;5.25;;;6.30;99.90;;;;;;5056162;28;20041;-74
2023/01/31 09:17:57;;;;;;;29.27;4.05;;;6.20;99.90;;;;;;5055806;28;20396;-74
2023/01/31 09:20:22;;;;;;;26.85;4.80;;;6.20;99.90;;;;;;5055712;28;20160;-74
2023/01/31 09:22:48;;;;;;;28.70;5.03;;;6.20;99.90;;;;;;5056028;28;20055;-74
2023/01/31 09:25:14;;;;;;;28.50;3.75;;;6.30;99.90;;;;;;5089308;28;20396;-74
2023/01/31 09:27:39;;;;;;;32.13;4.63;;;6.30;99.90;;;;;;5055409;28;20102;-74
2023/01/31 09:30:08;;;;;;;33.95;5.40;;;6.20;99.90;;;;;;5055903;28;20099;-74
2023/01/31 09:32:35;;;;;;;33.05;4.25;;;6.30;99.90;;;;;;5055473;28;20041;-74
2023/01/31 09:35:01;;;;;;;32.42;5.95;;;6.30;99.90;;;;;;5064885;28;20098;-74
2023/01/31 09:37:30;;;;;;;35.80;5.00;;;6.30;99.90;;;;;;5076576;28;20044;-74
2023/01/31 09:39:56;;;;;;;26.00;4.78;;;6.20;99.90;;;;;;5076166;28;20040;-74
2023/01/31 09:42:37;;;;;;;32.75;5.72;;;6.40;99.90;;;;;;5075018;28;20040;-74
2023/01/31 09:45:10;;;;;;;40.92;5.85;;;6.20;99.90;;;;;;5072840;28;20101;-74
2023/01/31 09:47:57;;;;;;;37.45;5.45;;;6.30;99.90;;;;;;5075559;28;20040;-74
2023/01/31 09:50:26;;;;;;;27.90;5.28;;;6.30;99.90;;;;;;5075018;28;20068;-75
2023/01/31 09:52:51;;;;;;;23.63;3.53;;;6.30;99.90;;;;;;5075063;28;20044;-75
2023/01/31 09:55:24;;;;;;;46.30;5.53;;;6.30;99.90;;;;;;5075323;28;20124;-74
2023/01/31 09:57:58;;;;;;;31.70;4.03;;;6.20;99.90;;;;;;5075295;28;20415;-74
2023/01/31 10:00:30;;;;;;;39.25;5.85;;;6.30;99.90;;;;;;5075050;28;20080;-74
2023/01/31 10:03:24;;;;;;;29.38;4.30;;;6.30;99.90;;;;;;5075263;28;20084;-74
2023/01/31 10:06:12;;;;;;;29.63;4.80;;;6.30;99.90;;;;;;5074909;28;20127;-74
2023/01/31 10:09:03;;;;;;;34.60;4.88;;;6.40;99.90;;;;;;5076189;28;20135;-74
2023/01/31 10:11:40;;;;;;;26.35;4.82;;;6.50;99.90;;;;;;5074906;28;20396;-74
2023/01/31 10:14:24;;;;;;;31.80;4.82;;;6.30;99.90;;;;;;5074789;28;20055;-74
2023/01/31 10:17:13;;;;;;;21.55;4.60;;;6.50;99.90;;;;;;5074707;28;20136;-74
2023/01/31 10:20:19;;;;;;;31.80;5.77;;;6.40;99.90;;;;;;5074649;28;20080;-75
2023/01/31 10:22:54;;;;;;;31.77;5.95;;;6.50;99.90;;;;;;5061853;28;20551;-74
2023/01/31 10:25:35;;;;;;;37.38;4.80;;;6.50;99.90;;;;;;5074652;28;20385;-74
2023/01/31 10:28:16;;;;;;;38.63;6.25;;;6.40;99.90;;;;;;5074621;28;20060;-74
2023/01/31 10:30:58;;;;;;;24.98;5.60;;;6.40;99.90;;;;;;5074377;28;20041;-76
2023/01/31 10:33:35;;;;;;;24.70;5.35;;;6.50;99.90;;;;;;5074738;28;20099;-75
2023/01/31 10:36:39;;;;;;;30.63;5.78;;;6.40;99.90;;;;;;5074340;28;20032;-75
2023/01/31 10:39:05;;;;;;;35.50;6.13;;;6.40;99.90;;;;;;5042516;28;20060;-75
2023/01/31 10:41:44;;;;;;;36.95;6.03;;;6.50;99.90;;;;;;5074293;28;20554;-74
2023/01/31 10:44:23;;;;;;;30.27;4.85;;;6.50;99.90;;;;;;5074265;28;20071;-75
2023/01/31 10:46:54;;;;;;;25.98;5.38;;;6.50;99.90;;;;;;5074499;28;20129;-75
2023/01/31 10:49:23;;;;;;;27.80;4.80;;;6.50;99.90;;;;;;5074215;28;20052;-74
2023/01/31 10:52:12;;;;;;;31.00;5.40;;;6.50;99.90;;;;;;5074134;28;20043;-75
2023/01/31 10:54:47;;;;;;;39.88;6.18;;;6.60;99.90;;;;;;5074103;28;20048;-74
2023/01/31 10:57:14;;;;;;;32.33;5.43;;;6.50;99.90;;;;;;5073842;28;20075;-74
2023/01/31 10:59:44;;;;;;;46.65;5.68;;;6.50;99.90;;;;;;5067624;28;20123;-74
2023/01/31 11:02:23;;;;;;;31.95;5.18;;;6.60;99.90;;;;;;5088318;28;20492;-75
2023/01/31 11:04:51;;;;;;;32.22;5.15;;;6.60;99.90;;;;;;5055145;28;20033;-74
2023/01/31 11:07:17;;;;;;;31.17;5.32;;;6.70;99.90;;;;;;5053825;28;20097;-74
2023/01/31 11:09:50;;;;;;;37.88;5.20;;;6.70;99.90;;;;;;5053790;28;20450;-74
2023/01/31 11:12:16;;;;;;;39.22;5.88;;;6.80;99.90;;;;;;5053926;28;20073;-75
2023/01/31 11:14:42;;;;;;;35.78;5.78;;;6.70;99.90;;;;;;5054035;28;20044;-75
2023/01/31 11:17:19;;;;;;;29.48;5.68;;;6.80;99.90;;;;;;5053449;28;20052;-75
2023/01/31 11:20:09;;;;;;;37.83;7.53;;;6.80;99.90;;;;;;5053693;28;20056;-75
2023/01/31 11:22:36;;;;;;;29.05;5.82;;;6.90;99.90;;;;;;5086874;28;20400;-75
2023/01/31 11:25:06;;;;;;;33.72;4.65;;;6.80;99.90;;;;;;5053438;28;20045;-74
2023/01/31 11:27:40;;;;;;;28.52;6.07;;;6.90;99.90;;;;;;5054371;28;20115;-75
2023/01/31 11:30:21;;;;;;;25.05;4.35;;;7.00;99.90;;;;;;5053394;28;20064;-75
2023/01/31 11:32:48;;;;;;;24.85;4.63;;;7.00;99.90;;;;;;5053112;28;20048;-75
2023/01/31 11:35:16;;;;;;;34.47;6.38;;;7.10;99.90;;;;;;5053017;28;20072;-75
2023/01/31 11:37:57;;;;;;;35.50;8.25;;;7.10;99.90;;;;;;5053301;28;20087;-74
2023/01/31 11:40:38;;;;;;;37.42;5.40;;;7.20;99.90;;;;;;5053556;28;20135;-75
2023/01/31 11:43:19;;;;;;;34.55;4.65;;;7.20;99.90;;;;;;5053379;28;20098;-75
2023/01/31 11:45:53;;;;;;;36.47;5.45;;;7.20;99.90;;;;;;5053184;28;20037;-74
2023/01/31 11:48:22;;;;;;;32.22;5.72;;;7.10;99.90;;;;;;5053006;28;20049;-74
2023/01/31 11:51:00;;;;;;;38.85;7.00;;;7.30;99.90;;;;;;5053113;28;20052;-74
2023/01/31 11:53:29;;;;;;;30.80;5.53;;;7.20;99.90;;;;;;5053203;28;20040;-74
2023/01/31 11:55:59;;;;;;;33.90;5.22;;;7.20;99.90;;;;;;5053150;28;20045;-74
2023/01/31 11:58:38;;;;;;;25.05;6.28;;;7.40;99.90;;;;;;5052711;28;20060;-75
2023/01/31 12:01:12;;;;;;;28.80;4.88;;;7.30;99.90;;;;;;5052982;28;20125;-74
2023/01/31 12:03:44;;;;;;;42.30;6.18;;;7.50;99.90;;;;;;5053077;28;20041;-74
2023/01/31 12:06:24;;;;;;;33.72;6.10;;;7.40;99.90;;;;;;5053013;28;20059;-74
2023/01/31 12:08:53;;;;;;;27.83;4.75;;;7.50;99.90;;;;;;5052594;28;20132;-74
2023/01/31 12:11:18;;;;;;;32.10;5.35;;;7.50;99.90;;;;;;5054035;28;20040;-74
2023/01/31 12:13:47;;;;;;;41.92;5.78;;;7.50;99.90;;;;;;5052552;28;20067;-74
2023/01/31 12:16:15;;;;;;;36.80;6.40;;;7.60;99.90;;;;;;5052820;28;20076;-74
2023/01/31 12:19:03;;;;;;;33.80;5.68;;;7.60;99.90;;;;;;5052742;28;20045;-74
2023/01/31 12:21:58;;;;;;;35.47;5.15;;;7.70;99.90;;;;;;5052349;28;20506;-74
2023/01/31 12:25:05;;;;;;;32.05;5.80;;;7.70;99.90;;;;;;5083317;28;20064;-74
2023/01/31 12:27:55;;;;;;;32.72;5.35;;;7.80;99.90;;;;;;5052294;28;20053;-75
2023/01/31 12:30:36;;;;;;;27.45;5.22;;;7.80;99.90;;;;;;5051978;28;20049;-74
2023/01/31 12:33:23;;;;;;;31.25;6.43;;;7.80;99.90;;;;;;5052295;28;20048;-74
2023/01/31 12:36:10;;;;;;;43.88;7.88;;;7.90;99.90;;;;;;5052212;28;20056;-74
2023/01/31 12:39:02;;;;;;;27.73;5.88;;;8.00;99.90;;;;;;5052264;28;20057;-74
2023/01/31 12:41:32;;;;;;;26.10;4.70;;;8.00;99.90;;;;;;5052197;28;20511;-74
2023/01/31 12:44:26;;;;;;;31.08;4.65;;;8.00;99.90;;;;;;5052435;28;20080;-74
2023/01/31 12:47:07;;;;;;;;;;;8.00;99.90;;;;;;5052111;28;20045;-74
2023/01/31 12:50:00;;;;;;;27.15;5.68;;;8.10;99.90;;;;;;5085538;28;20342;-74
2023/01/31 12:52:50;;;;;;;34.67;6.15;;;8.10;99.90;;;;;;5051918;28;20049;-75
2023/01/31 12:55:38;;;;;;;26.15;5.68;;;8.10;99.90;;;;;;5052226;28;20049;-75
2023/01/31 12:58:18;;;;;;;36.05;7.90;;;8.20;99.90;;;;;;5052101;28;20040;-74
2023/01/31 13:00:56;;;;;;;62.95;6.57;;;8.20;99.90;;;;;;5053362;28;20040;-74
2023/01/31 13:03:32;;;;;;;26.92;5.28;;;8.20;99.90;;;;;;5052041;28;20052;-74
2023/01/31 13:06:18;;;;;;;33.95;5.28;;;8.20;99.90;;;;;;5051978;28;20033;-74
2023/01/31 13:08:56;;;;;;;34.60;5.03;;;8.20;99.90;;;;;;5052154;28;20135;-75
2023/01/31 13:11:29;;;;;;;31.98;5.63;;;8.20;99.90;;;;;;5051810;28;20053;-75
2023/01/31 13:13:59;;;;;;;37.92;8.20;;;8.20;99.90;;;;;;5052010;28;20481;-75
2023/01/31 13:16:33;;;;;;;34.58;4.88;;;8.20;99.90;;;;;;5051662;28;20080;-74
2023/01/31 13:19:05;;;;;;;24.40;4.55;;;8.20;99.90;;;;;;5052020;28;20167;-74
2023/01/31 13:21:36;;;;;;;33.75;6.25;;;8.20;99.90;;;;;;5051652;28;20497;-74
2023/01/31 13:24:11;;;;;;;41.33;7.43;;;8.20;99.90;;;;;;5051681;28;20053;-74